Terminal Aerodrome Forecast
Issued by NWS

Home | Current Version | Previous Version | Text Only | Print | Product List | Glossary On
Versions: 1 2 3 4 5 6 7 8 9 10 11 12 13 14 15
000
FTUS46 KSTO 250500
TAFMHR
TAF
KMHR 250539Z 2506/2606 19008KT P6SM SKC
     FM251400 14005KT P6SM BKN010
     FM251800 17005KT P6SM SCT010
     FM252200 20006KT P6SM SCT250
     FM260100 23011KT P6SM SCT250
      AMD NOT SKED=

USA.gov is the U.S. government's official web portal to all federal, state and local government web resources and services.